Time;durP1;ratioP1;P1;durP2;ratioP2;P2;SDS_P1;SDS_P2;PMS_P1;PMS_P2;Temp;Humidity;BMP_temperature;BMP_pressure;BME280_temperature;BME280_humidity;BME280_pressure;Samples;Min_cycle;Max_cycle;Signal;HPM_P1;HPM_P2
2021/10/04 00:02:56;;;;;;;16.47;11.93;;;;;;;10.99;75.72;98993.30;2104230;85;20953;-79
2021/10/04 00:05:57;;;;;;;15.17;11.87;;;;;;;10.94;75.87;98997.59;2103808;85;20988;-79
2021/10/04 00:08:58;;;;;;;15.83;11.53;;;;;;;10.87;76.00;98994.03;2102505;84;20999;-79
2021/10/04 00:11:58;;;;;;;14.17;11.27;;;;;;;10.83;76.27;98993.54;2102892;85;20992;-79
2021/10/04 00:14:59;;;;;;;16.23;12.00;;;;;;;10.80;76.47;98998.30;2102936;84;21352;-81
2021/10/04 00:18:00;;;;;;;16.13;12.17;;;;;;;10.76;76.53;98997.80;2109793;84;21412;-79
2021/10/04 00:21:00;;;;;;;18.60;12.17;;;;;;;10.73;76.63;98999.06;2111052;84;21308;-79
2021/10/04 00:24:01;;;;;;;16.90;12.70;;;;;;;10.70;76.67;98999.02;2110756;84;20980;-80
2021/10/04 00:27:01;;;;;;;14.80;12.23;;;;;;;10.67;76.87;99000.28;2110806;84;20944;-79
2021/10/04 00:30:05;;;;;;;16.53;11.37;;;;;;;10.64;76.99;98993.72;2110792;84;21087;-79
2021/10/04 00:33:04;;;;;;;18.13;12.73;;;;;;;10.64;77.11;98995.45;2110100;84;21701;-80
2021/10/04 00:36:05;;;;;;;21.13;11.93;;;;;;;10.60;77.07;98998.45;2110227;84;20932;-79
2021/10/04 00:39:05;;;;;;;17.23;11.73;;;;;;;10.59;77.26;98995.39;2109727;84;20992;-79
2021/10/04 00:42:06;;;;;;;18.00;12.00;;;;;;;10.58;77.25;98994.06;2110158;84;21356;-79
2021/10/04 00:45:06;;;;;;;17.43;12.50;;;;;;;10.53;77.30;98997.91;2110479;84;21383;-79
2021/10/04 00:48:07;;;;;;;14.90;11.60;;;;;;;10.52;77.33;98998.77;2110553;84;20972;-80
2021/10/04 00:51:07;;;;;;;15.40;12.80;;;;;;;10.52;77.62;99002.69;2111069;84;20951;-79
2021/10/04 00:54:08;;;;;;;13.43;11.40;;;;;;;10.49;77.50;99000.03;2110961;84;20929;-79
2021/10/04 00:57:09;;;;;;;13.87;11.90;;;;;;;10.46;77.76;98999.98;2111175;84;20941;-80
2021/10/04 01:00:09;;;;;;;16.33;11.37;;;;;;;10.44;77.60;99001.70;2111169;84;20929;-80
2021/10/04 01:03:10;;;;;;;16.37;11.90;;;;;;;10.42;77.65;98993.84;2110934;84;21288;-79
2021/10/04 01:06:10;;;;;;;19.87;12.20;;;;;;;10.38;77.66;98985.48;2111141;84;20939;-78
2021/10/04 01:09:11;;;;;;;17.93;12.63;;;;;;;10.36;77.70;98987.63;2110315;84;21134;-79
2021/10/04 01:12:11;;;;;;;18.63;12.33;;;;;;;10.32;77.80;98985.82;2110680;84;21019;-78
2021/10/04 01:15:12;;;;;;;16.00;13.00;;;;;;;10.29;77.99;98980.13;2110438;84;20933;-79
2021/10/04 01:18:12;;;;;;;15.13;12.43;;;;;;;10.26;78.12;98981.81;2099606;84;21340;-80
2021/10/04 01:21:12;;;;;;;17.67;13.23;;;;;;;10.21;78.10;98983.92;2098991;85;21332;-79
2021/10/04 01:24:13;;;;;;;17.60;12.90;;;;;;;10.20;78.07;98981.30;2098727;85;20981;-80
2021/10/04 01:27:13;;;;;;;17.90;13.30;;;;;;;10.16;78.08;98990.77;2098896;85;20945;-80
2021/10/04 01:30:14;;;;;;;18.53;13.47;;;;;;;10.14;78.18;98987.27;2098828;85;20948;-79
2021/10/04 01:33:14;;;;;;;17.07;13.37;;;;;;;10.13;78.45;98991.15;2098937;85;20968;-82
2021/10/04 01:36:15;;;;;;;17.30;12.77;;;;;;;10.12;78.51;98994.61;2099074;85;21352;-79
2021/10/04 01:39:15;;;;;;;15.67;12.33;;;;;;;10.11;78.50;99000.69;2099162;85;21016;-80
2021/10/04 01:42:16;;;;;;;23.13;13.80;;;;;;;10.07;78.75;98994.54;2098624;85;21008;-80
2021/10/04 01:45:16;;;;;;;20.57;13.10;;;;;;;10.06;78.69;98998.00;2098974;85;20944;-80
2021/10/04 01:48:17;;;;;;;20.23;13.83;;;;;;;10.04;78.58;98994.48;2099250;85;20941;-81
2021/10/04 01:51:18;;;;;;;21.70;12.93;;;;;;;10.00;78.70;98993.11;2099705;85;20953;-80
2021/10/04 01:54:18;;;;;;;17.73;13.53;;;;;;;9.97;78.96;98990.03;2099650;85;20977;-81
2021/10/04 01:57:18;;;;;;;16.10;12.73;;;;;;;9.94;78.81;98993.89;2099624;85;20945;-80
2021/10/04 02:00:19;;;;;;;16.67;13.93;;;;;;;9.92;78.95;98988.20;2099630;85;20945;-80
2021/10/04 02:03:20;;;;;;;17.07;12.73;;;;;;;9.88;79.04;98993.78;2099497;85;20953;-81
2021/10/04 02:06:21;;;;;;;120.10;20.40;;;;;;;9.89;78.98;98995.54;2099696;85;21318;-81
2021/10/04 02:09:21;;;;;;;21.17;14.63;;;;;;;9.86;79.40;98988.97;2099700;85;21052;-79
2021/10/04 02:12:21;;;;;;;21.17;14.50;;;;;;;9.88;79.36;98989.88;2099396;85;20964;-81
2021/10/04 02:15:22;;;;;;;16.13;13.57;;;;;;;9.89;79.35;98985.11;2099797;85;21313;-80
2021/10/04 02:18:22;;;;;;;17.57;13.90;;;;;;;9.87;79.25;98981.60;2103954;84;20976;-79
2021/10/04 02:21:23;;;;;;;15.33;12.33;;;;;;;9.85;79.48;98986.79;2103939;84;20922;-83
2021/10/04 02:24:24;;;;;;;18.13;13.57;;;;;;;9.85;79.80;98995.03;2104224;85;20930;-82
2021/10/04 02:27:24;;;;;;;21.03;13.57;;;;;;;9.85;79.29;98993.73;2103533;84;20933;-80
2021/10/04 02:30:24;;;;;;;19.67;13.23;;;;;;;9.85;79.46;99001.55;2103789;84;20901;-82
2021/10/04 02:33:25;;;;;;;18.13;13.47;;;;;;;9.83;79.48;98992.41;2103944;84;21308;-80
2021/10/04 02:36:25;;;;;;;18.83;13.47;;;;;;;9.83;80.13;98997.62;2103743;85;20925;-81
2021/10/04 02:39:26;;;;;;;286.63;34.93;;;;;;;9.83;79.39;98995.44;2103889;85;20988;-79
2021/10/04 02:42:26;;;;;;;21.60;14.07;;;;;;;9.82;79.49;98999.77;2103057;84;20972;-81
2021/10/04 02:45:27;;;;;;;22.43;12.93;;;;;;;9.84;79.45;99001.10;2104096;85;20953;-80
2021/10/04 02:48:27;;;;;;;16.50;12.93;;;;;;;9.84;79.58;98994.58;2103322;84;20965;-81
2021/10/04 02:51:28;;;;;;;16.30;12.70;;;;;;;9.82;79.44;98996.29;2103757;84;21300;-80
2021/10/04 02:54:28;;;;;;;20.17;12.93;;;;;;;9.79;79.41;98988.41;2103061;84;20921;-79
2021/10/04 02:57:29;;;;;;;14.43;11.97;;;;;;;9.78;79.52;98991.88;2103252;84;20929;-79
2021/10/04 03:00:29;;;;;;;17.60;12.23;;;;;;;9.76;79.46;98987.06;2103664;84;20953;-79
2021/10/04 03:03:30;;;;;;;19.30;12.43;;;;;;;9.76;79.52;98989.23;2103760;84;20956;-81
2021/10/04 03:06:31;;;;;;;16.90;13.27;;;;;;;9.74;79.54;98987.45;2103085;85;20992;-79
2021/10/04 03:09:31;;;;;;;19.57;12.77;;;;;;;9.70;79.55;98990.86;2103096;84;21039;-79
2021/10/04 03:12:32;;;;;;;23.23;13.60;;;;;;;9.68;79.96;98992.14;2103120;84;21364;-81
2021/10/04 03:15:32;;;;;;;18.50;12.40;;;;;;;9.65;80.02;98992.52;2103411;84;21316;-79
2021/10/04 03:18:33;;;;;;;18.63;12.10;;;;;;;9.65;79.82;98988.17;2099519;84;21000;-79
2021/10/04 03:21:33;;;;;;;21.73;13.40;;;;;;;9.63;79.75;98988.57;2099494;85;21327;-79
2021/10/04 03:24:34;;;;;;;19.43;13.03;;;;;;;9.64;81.01;98997.27;2099243;85;21329;-79
2021/10/04 03:27:34;;;;;;;21.07;15.57;;;;;;;9.70;80.06;98999.98;2099159;85;20949;-83
2021/10/04 03:30:35;;;;;;;15.77;13.77;;;;;;;9.69;79.77;98998.23;2098778;85;20937;-79
2021/10/04 03:33:35;;;;;;;15.93;12.63;;;;;;;9.67;79.93;98999.93;2098972;85;21012;-80
2021/10/04 03:36:36;;;;;;;15.80;12.50;;;;;;;9.67;79.76;98999.50;2098918;85;20977;-80
2021/10/04 03:39:36;;;;;;;17.70;12.87;;;;;;;9.66;79.91;99009.91;2098870;85;21415;-81
2021/10/04 03:42:37;;;;;;;19.03;13.03;;;;;;;9.62;79.83;98999.84;2098551;85;21037;-79
2021/10/04 03:45:37;;;;;;;17.77;12.27;;;;;;;9.60;79.90;99003.28;2098731;85;20945;-81
2021/10/04 03:48:38;;;;;;;16.97;13.27;;;;;;;9.60;79.96;99001.97;2098713;85;20917;-79
2021/10/04 03:51:38;;;;;;;14.00;12.30;;;;;;;9.57;80.01;98997.16;2098816;85;20980;-80
2021/10/04 03:54:39;;;;;;;17.17;12.83;;;;;;;9.56;79.96;98994.53;2098335;85;20957;-80
2021/10/04 03:57:40;;;;;;;18.17;12.13;;;;;;;9.52;80.00;98997.47;2098717;85;20953;-79
2021/10/04 04:00:41;;;;;;;15.77;12.07;;;;;;;9.51;80.12;98994.41;2099046;85;21093;-79
2021/10/04 04:03:52;;;;;;;15.10;12.43;;;;;;;9.50;80.10;99003.50;2099545;85;20973;-81
2021/10/04 04:06:52;;;;;;;16.70;12.47;;;;;;;9.50;80.16;98999.59;2099346;85;21093;-81
2021/10/04 04:09:53;;;;;;;19.97;12.13;;;;;;;9.50;80.18;98997.86;2098868;85;20998;-80
2021/10/04 04:12:53;;;;;;;16.23;11.90;;;;;;;9.49;80.38;99002.63;2098968;85;21372;-81
2021/10/04 04:15:54;;;;;;;24.10;13.63;;;;;;;9.48;80.12;99007.38;2098767;85;20948;-80
2021/10/04 04:18:54;;;;;;;13.77;12.27;;;;;;;9.46;80.61;98999.08;2110644;84;20992;-80
2021/10/04 04:21:55;;;;;;;14.70;12.10;;;;;;;9.44;80.32;98999.48;2110182;84;21001;-81
2021/10/04 04:24:56;;;;;;;20.43;12.33;;;;;;;9.42;80.50;99003.36;2108951;84;20980;-81
2021/10/04 04:27:58;;;;;;;17.30;12.90;;;;;;;9.41;80.48;98999.00;2108714;84;20952;-81
2021/10/04 04:30:59;;;;;;;13.23;11.53;;;;;;;9.42;80.69;98998.57;2108877;84;21008;-79
2021/10/04 04:33:59;;;;;;;20.70;12.53;;;;;;;9.40;80.51;99000.27;2109958;84;21336;-80
2021/10/04 04:36:59;;;;;;;17.27;11.97;;;;;;;9.39;80.76;99003.30;2110198;84;21016;-82
2021/10/04 04:40:00;;;;;;;13.63;11.73;;;;;;;9.39;80.53;99009.81;2108980;84;20992;-82
2021/10/04 04:43:01;;;;;;;16.50;11.47;;;;;;;9.37;80.44;99013.23;2109271;84;20936;-80
2021/10/04 04:46:01;;;;;;;14.43;11.60;;;;;;;9.34;80.65;99011.45;2110445;84;20909;-81
2021/10/04 04:49:01;;;;;;;27.90;12.90;;;;;;;9.35;80.51;99017.11;2110493;84;20929;-77
2021/10/04 04:52:02;;;;;;;15.63;11.90;;;;;;;9.35;80.59;99015.81;2110277;84;20952;-81
2021/10/04 04:58:40;;;;;;;13.23;11.70;;;;;;;9.37;80.66;99014.54;2109958;84;20936;-82
2021/10/04 05:01:41;;;;;;;20.20;12.57;;;;;;;9.42;80.66;99013.78;2109229;84;21464;-81
2021/10/04 05:11:42;;;;;;;18.20;11.43;;;;;;;9.51;80.44;99024.38;2109127;84;21768;-80
2021/10/04 05:14:43;;;;;;;19.93;11.90;;;;;;;9.53;80.32;99023.98;2109658;84;20933;-81
2021/10/04 05:17:44;;;;;;;17.50;11.93;;;;;;;9.59;80.27;99027.16;2106787;83;21367;-80
2021/10/04 05:20:45;;;;;;;14.93;11.47;;;;;;;9.63;80.16;99033.30;2103000;85;21011;-80
2021/10/04 05:23:45;;;;;;;23.33;11.83;;;;;;;9.66;79.95;99030.75;2102862;84;20972;-80
2021/10/04 05:26:46;;;;;;;17.07;11.40;;;;;;;9.66;79.96;99030.75;2102939;84;20956;-81
2021/10/04 05:29:46;;;;;;;15.13;10.87;;;;;;;9.70;79.88;99024.33;2104151;85;21313;-80
2021/10/04 05:32:47;;;;;;;15.60;11.63;;;;;;;9.76;79.90;99028.34;2102972;84;21006;-80
2021/10/04 05:35:47;;;;;;;44.30;13.83;;;;;;;9.83;79.87;99030.63;2103188;84;20947;-79
2021/10/04 05:38:48;;;;;;;14.50;10.90;;;;;;;9.88;79.69;99025.95;2103345;84;20944;-83
2021/10/04 05:41:48;;;;;;;29.53;11.27;;;;;;;9.99;79.59;99035.27;2102313;84;21009;-80
2021/10/04 05:44:49;;;;;;;12.20;9.73;;;;;;;10.11;79.45;99036.77;2102900;84;20980;-82
2021/10/04 05:47:50;;;;;;;12.30;10.63;;;;;;;10.26;79.15;99032.69;2103651;84;20948;-81
2021/10/04 05:50:50;;;;;;;15.50;10.50;;;;;;;10.41;78.88;99036.45;2103244;84;20933;-82
2021/10/04 05:53:51;;;;;;;23.53;11.93;;;;;;;10.57;78.54;99034.95;2102747;84;21007;-81
2021/10/04 05:56:51;;;;;;;18.37;10.23;;;;;;;10.71;78.22;99038.64;2102541;85;20943;-81
2021/10/04 05:59:52;;;;;;;14.60;10.27;;;;;;;10.88;77.82;99035.38;2102625;85;20960;-82
2021/10/04 06:02:52;;;;;;;12.73;10.10;;;;;;;11.02;77.35;99035.14;2102745;85;21431;-81
2021/10/04 06:05:53;;;;;;;93.10;15.40;;;;;;;11.16;77.06;99034.88;2103819;85;20925;-83
2021/10/04 06:08:53;;;;;;;14.97;10.50;;;;;;;11.30;76.74;99034.66;2103117;84;20922;-82
2021/10/04 06:11:54;;;;;;;13.88;9.38;;;;;;;11.46;76.36;99027.44;2103149;84;20968;-81
2021/10/04 06:14:55;;;;;;;14.45;9.98;;;;;;;11.61;75.95;99023.23;2102555;85;20993;-79
2021/10/04 06:17:55;;;;;;;15.20;10.05;;;;;;;11.77;75.79;99029.06;2100458;85;20957;-80
2021/10/04 06:20:56;;;;;;;11.37;9.60;;;;;;;11.91;74.96;99030.11;2098624;85;20996;-82
2021/10/04 06:23:56;;;;;;;12.70;9.13;;;;;;;12.06;74.77;99034.17;2099123;84;20977;-81
2021/10/04 06:26:57;;;;;;;10.98;9.10;;;;;;;12.20;74.29;99028.21;2099105;84;20924;-81
2021/10/04 06:29:57;;;;;;;15.32;9.43;;;;;;;12.37;73.94;99031.41;2058293;86;20960;-82
2021/10/04 06:32:58;;;;;;;10.90;9.17;;;;;;;12.53;73.65;99036.31;2057928;86;21442;-82
2021/10/04 06:35:58;;;;;;;16.30;8.55;;;;;;;12.71;73.16;99038.19;2057588;87;20952;-81
2021/10/04 06:38:59;;;;;;;11.57;9.45;;;;;;;12.83;72.46;99036.95;2057662;86;20948;-81
2021/10/04 06:42:00;;;;;;;10.98;8.60;;;;;;;12.95;72.33;99039.64;2057692;86;20956;-81
2021/10/04 06:45:00;;;;;;;12.30;8.85;;;;;;;13.10;71.83;99047.17;2058015;86;20960;-81
2021/10/04 06:48:01;;;;;;;14.28;8.75;;;;;;;13.26;70.67;99051.21;2058057;86;20952;-82
2021/10/04 06:51:01;;;;;;;28.83;10.30;;;;;;;13.38;70.97;99047.33;2058232;86;21340;-82
2021/10/04 06:54:01;;;;;;;17.23;8.43;;;;;;;13.60;71.19;99050.02;2098914;85;21380;-82
2021/10/04 06:57:02;;;;;;;11.30;8.85;;;;;;;13.76;69.29;99056.18;2099631;84;20944;-82
2021/10/04 07:00:03;;;;;;;19.07;8.80;;;;;;;13.83;70.08;99057.52;2099129;85;20993;-82
2021/10/04 07:03:03;;;;;;;12.85;9.05;;;;;;;14.00;69.85;99062.83;2099203;85;21297;-81
2021/10/04 07:06:04;;;;;;;14.10;9.20;;;;;;;14.16;69.17;99058.47;2099392;84;20949;-80
2021/10/04 07:09:04;;;;;;;26.57;10.80;;;;;;;14.29;68.81;99064.16;2098425;84;20988;-79
2021/10/04 07:12:05;;;;;;;12.90;8.65;;;;;;;14.44;68.79;99066.83;2099350;85;20980;-80
2021/10/04 07:15:05;;;;;;;9.75;8.75;;;;;;;14.60;68.05;99069.00;2099453;85;20948;-79
2021/10/04 07:18:06;;;;;;;11.25;8.98;;;;;;;14.71;67.51;99065.93;2100972;84;21020;-81
2021/10/04 07:21:06;;;;;;;12.88;9.00;;;;;;;14.78;67.02;99066.83;2104240;84;21372;-81
2021/10/04 07:24:08;;;;;;;16.20;9.23;;;;;;;14.92;67.31;99071.19;2104200;84;20985;-83
2021/10/04 07:27:08;;;;;;;18.37;9.38;;;;;;;15.12;66.93;99071.13;2058657;86;20937;-82
2021/10/04 07:30:09;;;;;;;12.60;8.90;;;;;;;15.22;66.09;99073.30;2058432;86;20976;-83
2021/10/04 07:33:10;;;;;;;12.98;8.70;;;;;;;15.21;65.84;99076.36;2058455;86;20972;-83
2021/10/04 07:36:10;;;;;;;41.92;10.85;;;;;;;15.33;65.84;99078.08;2103605;84;21016;-82
2021/10/04 07:39:11;;;;;;;12.53;8.85;;;;;;;15.45;65.92;99076.72;2103492;84;20965;-79
2021/10/04 07:42:11;;;;;;;10.15;8.63;;;;;;;15.66;65.74;99077.13;2103207;85;20961;-81
2021/10/04 07:45:12;;;;;;;10.00;8.45;;;;;;;15.76;65.21;99075.33;2103751;85;20925;-81
2021/10/04 07:48:12;;;;;;;13.15;8.23;;;;;;;15.95;65.19;99074.78;2102755;84;20945;-82
2021/10/04 07:51:15;;;;;;;12.65;8.30;;;;;;;16.06;64.41;99080.41;2103659;84;20957;-80
2021/10/04 07:54:15;;;;;;;839.98;100.47;;;;;;;16.22;64.26;99074.15;2104388;85;20964;-82
2021/10/04 07:57:16;;;;;;;20.17;9.28;;;;;;;16.43;64.06;99079.70;2104585;84;20969;-82
2021/10/04 08:00:16;;;;;;;14.80;8.15;;;;;;;16.62;63.67;99083.09;2058891;86;20924;-81
2021/10/04 08:03:17;;;;;;;15.53;8.80;;;;;;;16.91;62.83;99078.02;2059864;87;20955;-82
2021/10/04 08:06:17;;;;;;;11.08;8.00;;;;;;;16.91;62.83;99078.02;2102568;84;20960;-81
2021/10/04 08:09:18;;;;;;;12.37;8.30;;;;;;;17.06;62.76;99076.10;2058201;86;20955;-83
2021/10/04 08:12:21;;;;;;;60.43;11.70;;;;;;;17.18;62.46;99075.09;2058495;87;21024;-82
2021/10/04 08:15:21;;;;;;;12.15;8.73;;;;;;;17.33;62.41;99075.37;2102641;84;20952;-81
2021/10/04 08:18:21;;;;;;;30.48;11.97;;;;;;;17.50;61.99;99082.67;2057741;86;20960;-81
2021/10/04 08:21:22;;;;;;;12.33;8.98;;;;;;;17.69;61.73;99084.66;2103101;84;21122;-82
2021/10/04 08:24:23;;;;;;;18.95;9.35;;;;;;;17.83;61.04;99076.98;2103643;85;21296;-82
2021/10/04 08:27:23;;;;;;;14.75;8.60;;;;;;;17.98;61.31;99073.25;2058764;86;21003;-81
2021/10/04 08:30:24;;;;;;;11.43;8.53;;;;;;;18.19;60.98;99073.38;2058066;86;20920;-82
2021/10/04 08:33:24;;;;;;;16.87;8.83;;;;;;;18.35;60.26;99074.05;2058221;87;20984;-80
2021/10/04 08:36:25;;;;;;;15.70;8.65;;;;;;;18.49;60.05;99072.06;2057634;86;20952;-81
2021/10/04 08:39:25;;;;;;;16.32;9.18;;;;;;;18.56;59.24;99065.77;2057014;86;20960;-79
2021/10/04 08:42:26;;;;;;;12.45;9.03;;;;;;;18.66;59.51;99067.84;2058007;86;21358;-80
2021/10/04 08:45:27;;;;;;;14.28;8.70;;;;;;;18.86;59.77;99071.02;2102818;84;20930;-81
2021/10/04 08:48:27;;;;;;;34.45;10.00;;;;;;;18.91;57.74;99066.96;2102499;84;20992;-82
2021/10/04 08:51:28;;;;;;;20.77;10.18;;;;;;;18.95;58.74;99070.84;2103594;84;20991;-81
2021/10/04 08:54:29;;;;;;;18.07;9.90;;;;;;;19.05;58.43;99075.06;2103153;84;21000;-82
2021/10/04 08:57:30;;;;;;;16.93;10.00;;;;;;;19.17;58.08;99078.41;2102597;84;20961;-80
2021/10/04 09:00:31;;;;;;;22.75;10.60;;;;;;;19.25;57.13;99078.69;2102795;84;20957;-82
2021/10/04 09:03:31;;;;;;;20.55;10.60;;;;;;;19.35;57.93;99073.63;2103355;84;20976;-79
2021/10/04 09:06:32;;;;;;;20.80;10.45;;;;;;;19.44;57.63;99072.58;2102755;84;20941;-81
2021/10/04 09:09:32;;;;;;;13.50;9.45;;;;;;;19.57;57.51;99073.23;2103179;84;20945;-83
2021/10/04 09:12:33;;;;;;;23.60;10.40;;;;;;;19.65;57.67;99063.34;2058336;86;21320;-82
2021/10/04 09:15:33;;;;;;;18.80;9.78;;;;;;;19.72;57.17;99062.31;2103839;85;21131;-81
2021/10/04 09:18:35;;;;;;;14.43;9.53;;;;;;;19.75;57.08;99059.59;2101040;84;20992;-82
2021/10/04 09:21:35;;;;;;;42.85;10.40;;;;;;;19.82;56.76;99057.69;2099580;85;20972;-82
2021/10/04 09:24:36;;;;;;;13.68;9.03;;;;;;;19.92;56.62;99057.91;2098535;85;20941;-80
2021/10/04 09:27:36;;;;;;;11.05;8.90;;;;;;;20.01;55.94;99055.08;2058163;87;20952;-81
2021/10/04 09:30:37;;;;;;;12.28;9.25;;;;;;;20.09;56.29;99051.80;2058133;86;20960;-82
2021/10/04 09:33:39;;;;;;;23.07;10.38;;;;;;;20.16;55.27;99044.58;2058153;86;20968;-80
2021/10/04 09:36:39;;;;;;;12.45;8.80;;;;;;;20.19;55.09;99045.38;2099784;84;20948;-81
2021/10/04 09:39:41;;;;;;;14.60;9.23;;;;;;;20.15;55.51;99045.03;2099511;85;20984;-81
2021/10/04 09:42:41;;;;;;;14.38;8.25;;;;;;;20.16;56.09;99043.25;2057799;86;21305;-82
2021/10/04 09:45:42;;;;;;;20.82;9.85;;;;;;;20.28;55.94;99037.20;2058319;86;20992;-81
2021/10/04 09:48:42;;;;;;;15.03;9.38;;;;;;;20.27;55.27;99041.21;2058199;86;20956;-81
2021/10/04 09:51:43;;;;;;;13.00;9.00;;;;;;;20.26;54.71;99037.69;2058064;86;21351;-84
2021/10/04 09:54:43;;;;;;;11.10;8.50;;;;;;;20.22;54.08;99037.34;2057204;86;21407;-81
2021/10/04 09:57:44;;;;;;;12.15;8.80;;;;;;;20.21;55.39;99034.28;2057976;87;20964;-83
2021/10/04 10:00:44;;;;;;;11.08;8.15;;;;;;;20.22;55.14;99034.70;2057810;86;20983;-81
2021/10/04 10:03:46;;;;;;;12.37;9.40;;;;;;;20.31;55.21;99033.15;2057801;86;20924;-80
2021/10/04 10:06:46;;;;;;;12.63;8.83;;;;;;;20.49;55.23;99030.53;2058532;86;21151;-80
2021/10/04 10:09:46;;;;;;;13.72;9.50;;;;;;;20.62;54.68;99027.11;2058587;86;20980;-79
2021/10/04 10:12:47;;;;;;;18.17;8.93;;;;;;;20.70;54.81;99028.23;2059104;86;21004;-83
2021/10/04 10:15:48;;;;;;;14.23;9.33;;;;;;;20.80;54.48;99027.95;2057871;87;20952;-82
2021/10/04 10:18:48;;;;;;;9.80;8.40;;;;;;;20.88;54.34;99022.02;2060058;85;21016;-82
2021/10/04 10:21:50;;;;;;;10.10;8.88;;;;;;;21.01;54.03;99018.58;2069062;86;20964;-81
2021/10/04 10:24:51;;;;;;;34.03;10.68;;;;;;;21.10;54.05;99025.41;2068543;86;20972;-82
2021/10/04 10:27:51;;;;;;;12.18;8.43;;;;;;;21.23;53.81;99026.84;2068741;86;21035;-82
2021/10/04 10:30:52;;;;;;;11.25;8.58;;;;;;;21.22;53.05;99026.39;2069250;86;20985;-80
2021/10/04 10:33:52;;;;;;;26.75;9.58;;;;;;;21.24;53.57;99028.59;2068915;86;21064;-83
2021/10/04 10:36:53;;;;;;;11.10;9.00;;;;;;;21.27;52.93;99032.48;2068306;86;20945;-79
2021/10/04 10:39:53;;;;;;;14.33;8.43;;;;;;;21.41;53.21;99022.79;2067890;86;20956;-81
2021/10/04 10:42:54;;;;;;;857.00;107.67;;;;;;;21.51;53.29;99023.80;2068120;86;21312;-80
2021/10/04 10:45:56;;;;;;;17.48;8.83;;;;;;;21.61;53.22;99023.07;2068025;86;20948;-82
2021/10/04 10:49:01;;;;;;;19.62;10.40;;;;;;;21.70;52.88;99021.50;2110682;84;21016;-83
2021/10/04 10:51:59;;;;;;;10.45;8.23;;;;;;;21.65;53.28;99026.05;2110421;84;21075;-81
2021/10/04 10:55:00;;;;;;;14.38;8.48;;;;;;;21.72;53.18;99026.77;2111368;84;20988;-81
2021/10/04 10:58:00;;;;;;;11.20;8.15;;;;;;;21.78;52.26;99018.16;2111452;84;20932;-84
2021/10/04 11:01:01;;;;;;;12.58;8.63;;;;;;;21.82;52.36;99019.80;2111130;84;20960;-84
2021/10/04 11:04:01;;;;;;;12.33;8.40;;;;;;;21.83;52.25;99020.67;2110659;84;21304;-82
2021/10/04 11:07:02;;;;;;;15.58;9.25;;;;;;;21.79;52.60;99013.25;2110827;84;21324;-80
2021/10/04 11:10:02;;;;;;;17.15;10.10;;;;;;;21.75;52.71;99016.05;2111321;84;20952;-82
2021/10/04 11:13:03;;;;;;;53.90;11.73;;;;;;;21.86;52.86;99013.47;2110709;84;21000;-84
2021/10/04 11:16:04;;;;;;;23.05;9.08;;;;;;;21.89;52.24;99004.08;2110844;84;20916;-80
2021/10/04 11:19:04;;;;;;;32.17;11.30;;;;;;;21.88;52.71;98998.80;2105664;84;21000;-80
2021/10/04 11:22:05;;;;;;;16.55;8.53;;;;;;;21.91;52.87;99008.01;2098556;85;21602;-81
2021/10/04 11:25:06;;;;;;;23.00;10.35;;;;;;;22.04;52.69;99013.84;2098580;85;21341;-81
2021/10/04 11:28:06;;;;;;;12.25;9.08;;;;;;;22.10;51.81;99009.66;2098538;85;20933;-83
2021/10/04 11:31:07;;;;;;;13.83;8.80;;;;;;;22.03;51.09;99014.30;2060176;86;21186;-82
2021/10/04 11:34:07;;;;;;;27.37;10.40;;;;;;;22.05;52.81;99013.80;2060329;85;20981;-82
2021/10/04 11:37:08;;;;;;;15.78;10.23;;;;;;;22.13;51.97;99015.74;2060294;86;21301;-79
2021/10/04 11:40:09;;;;;;;14.90;9.95;;;;;;;22.28;51.58;99017.50;2060264;86;20930;-81
2021/10/04 11:43:09;;;;;;;19.00;8.93;;;;;;;22.29;51.66;99021.44;2098936;85;20960;-80
2021/10/04 11:46:10;;;;;;;16.23;9.63;;;;;;;22.40;51.30;99019.30;2098641;84;21004;-79
2021/10/04 11:49:10;;;;;;;11.08;8.23;;;;;;;22.44;51.42;99013.41;2098774;84;20964;-80
2021/10/04 11:52:15;;;;;;;17.30;10.20;;;;;;;22.47;51.33;99008.86;2099234;84;20929;-80
2021/10/04 11:55:13;;;;;;;14.13;9.28;;;;;;;22.55;50.20;99011.29;2098848;84;20983;-81
2021/10/04 11:58:15;;;;;;;62.05;13.53;;;;;;;22.60;50.72;99013.33;2098874;85;20949;-80
2021/10/04 12:01:16;;;;;;;87.30;13.93;;;;;;;22.69;51.24;99014.81;2098493;84;21021;-81
2021/10/04 12:04:16;;;;;;;27.65;10.60;;;;;;;22.85;51.10;99021.37;2097685;85;20993;-80
2021/10/04 12:07:17;;;;;;;23.40;9.50;;;;;;;22.81;49.97;99021.94;2098008;85;20980;-80
2021/10/04 12:10:17;;;;;;;22.22;9.68;;;;;;;22.76;48.58;99015.88;2097606;85;20953;-80
2021/10/04 12:13:18;;;;;;;10.45;8.88;;;;;;;22.83;49.70;99017.43;2097404;84;21133;-80
2021/10/04 12:16:18;;;;;;;25.48;9.55;;;;;;;22.94;50.12;99010.86;2097844;84;20921;-81
2021/10/04 12:19:19;;;;;;;12.00;8.88;;;;;;;23.05;50.22;99006.02;2097362;83;20956;-82
2021/10/04 12:22:20;;;;;;;21.95;10.08;;;;;;;23.02;49.12;99006.12;2097678;85;21004;-80
2021/10/04 12:25:20;;;;;;;19.07;9.88;;;;;;;23.02;49.15;99002.14;2098192;85;20929;-80
2021/10/04 12:28:20;;;;;;;11.90;8.53;;;;;;;23.04;49.29;99003.82;2098208;84;21035;-81
2021/10/04 12:31:21;;;;;;;19.02;9.80;;;;;;;23.06;49.78;99005.09;2098150;85;20992;-80
2021/10/04 12:34:22;;;;;;;18.65;9.93;;;;;;;23.08;49.99;99000.13;2097971;84;20976;-82
2021/10/04 12:37:22;;;;;;;10.82;9.20;;;;;;;23.12;50.30;99001.75;2098172;84;21372;-82
2021/10/04 12:40:23;;;;;;;22.62;9.70;;;;;;;23.19;49.82;98993.07;2097923;85;20949;-81
2021/10/04 12:43:24;;;;;;;10.68;8.23;;;;;;;23.18;49.70;98999.33;2058738;86;21670;-80
2021/10/04 12:46:24;;;;;;;17.57;8.60;;;;;;;23.16;49.52;98998.51;2097370;85;21352;-80
2021/10/04 12:49:25;;;;;;;11.05;8.63;;;;;;;23.22;49.89;99002.74;2097739;84;21373;-79
2021/10/04 12:52:25;;;;;;;71.80;14.75;;;;;;;23.19;49.50;99002.39;2098039;85;20956;-80
2021/10/04 12:55:26;;;;;;;14.10;8.85;;;;;;;23.13;49.65;99001.28;2096917;85;20952;-80
2021/10/04 12:58:27;;;;;;;15.45;9.78;;;;;;;23.04;49.28;99009.14;2096801;85;21076;-81
2021/10/04 13:01:29;;;;;;;22.30;10.13;;;;;;;22.92;49.62;98999.40;2085299;85;20941;-81
2021/10/04 13:04:29;;;;;;;12.55;8.55;;;;;;;23.04;49.39;99004.28;2096969;85;20937;-81
2021/10/04 13:07:32;;;;;;;13.43;9.35;;;;;;;23.00;49.42;99001.33;2097013;84;20929;-82
2021/10/04 13:10:32;;;;;;;15.35;9.43;;;;;;;22.94;49.58;98999.75;2096717;85;20995;-81
2021/10/04 13:13:33;;;;;;;11.18;9.00;;;;;;;23.05;48.97;99008.68;2097298;84;20984;-82
2021/10/04 13:16:33;;;;;;;12.05;8.93;;;;;;;23.08;49.42;99004.58;2097971;85;20952;-82
2021/10/04 13:19:34;;;;;;;15.23;9.58;;;;;;;23.09;48.85;99007.65;2058096;85;20965;-82
2021/10/04 13:22:34;;;;;;;12.40;9.20;;;;;;;23.08;49.34;99008.57;2056854;86;21005;-82
2021/10/04 13:25:35;;;;;;;16.82;9.68;;;;;;;23.08;49.85;99011.23;2056719;86;20969;-80
2021/10/04 13:28:38;;;;;;;24.72;10.32;;;;;;;23.05;49.72;99005.55;2057101;86;21128;-81
2021/10/04 13:31:38;;;;;;;10.93;8.85;;;;;;;22.94;49.53;99006.41;2071332;85;20988;-81
2021/10/04 13:34:41;;;;;;;14.50;9.93;;;;;;;22.94;49.82;99009.53;2070232;86;20968;-81
2021/10/04 13:37:42;;;;;;;15.72;10.35;;;;;;;22.93;49.46;99009.99;2072123;85;21371;-79
2021/10/04 13:40:42;;;;;;;21.15;10.25;;;;;;;23.01;49.65;99009.72;2071898;85;20972;-80
2021/10/04 13:43:43;;;;;;;22.62;11.20;;;;;;;23.04;49.65;99017.13;2071092;86;20960;-81
2021/10/04 13:46:43;;;;;;;42.10;11.35;;;;;;;22.94;49.16;99012.19;2069260;85;20984;-82
2021/10/04 13:49:44;;;;;;;33.05;12.25;;;;;;;22.93;49.76;99017.11;2071370;86;21458;-81
2021/10/04 13:52:45;;;;;;;33.08;11.78;;;;;;;22.87;49.91;99017.73;2072805;85;21592;-80
2021/10/04 13:55:45;;;;;;;34.45;12.37;;;;;;;22.87;49.44;99019.52;2071135;86;20956;-81
2021/10/04 13:58:46;;;;;;;26.87;11.50;;;;;;;22.83;50.15;99021.88;2072156;85;21005;-82
2021/10/04 14:01:46;;;;;;;14.65;10.18;;;;;;;22.81;49.99;99019.28;2070386;85;20969;-81
2021/10/04 14:04:47;;;;;;;11.50;9.50;;;;;;;22.84;50.49;99021.83;2068861;86;20996;-82
2021/10/04 14:07:47;;;;;;;25.50;11.05;;;;;;;22.89;50.85;99023.00;2070797;85;21332;-81